createdAt,value
2022-07-26T11:23:24.992Z,68935.68
2022-07-26T11:24:25.457Z,15759.36
2022-07-26T11:25:26.268Z,12810.24
2022-07-26T11:26:29.159Z,11289.60
2022-07-26T11:27:28.429Z,10598.40
2022-07-26T11:28:28.994Z,10091.52
2022-07-26T11:29:35.685Z,9953.28
2022-07-26T11:30:28.469Z,10644.48
2022-07-26T11:31:51.179Z,11750.40
2022-07-26T11:32:28.943Z,12994.56
2022-07-26T11:33:32.818Z,14745.60
2022-07-26T11:34:30.272Z,17141.76
2022-07-26T11:35:30.628Z,53821.44
2022-07-26T11:36:31.921Z,68935.68
2022-07-26T11:37:30.937Z,67461.12
2022-07-26T11:38:31.289Z,64880.64
2022-07-26T11:39:32.574Z,63406.08
2022-07-26T11:40:32.181Z,64143.36
2022-07-26T11:41:34.915Z,63774.72
2022-07-26T11:42:33.226Z,63037.44
2022-07-26T11:43:34.393Z,61194.24
2022-07-26T11:44:34.253Z,61562.88
2022-07-26T11:45:34.380Z,61931.52
2022-07-26T11:46:24.730Z,62300.16
2022-07-26T11:47:26.325Z,63774.72
2022-07-26T11:48:26.014Z,64880.64
2022-07-26T11:50:25.792Z,64143.36
2022-07-26T11:51:26.588Z,65986.56
2022-07-26T11:52:28.436Z,67829.76
2022-07-26T11:53:30.336Z,68935.68
2022-07-26T11:54:28.253Z,48660.48
2022-07-26T11:55:29.003Z,69304.32
2022-07-26T11:56:29.897Z,51609.60
2022-07-26T11:57:30.427Z,20736.00
2022-07-26T11:58:30.423Z,68935.68
2022-07-26T11:59:30.743Z,14008.32
2022-07-26T12:00:32.633Z,10552.32
2022-07-26T12:00:46.571Z,10183.68
2022-07-26T12:01:49.711Z,9169.92
2022-07-26T12:02:55.811Z,8893.44
2022-07-26T12:03:47.865Z,9031.68
2022-07-26T12:04:48.217Z,9538.56
2022-07-26T12:05:48.578Z,10183.68
2022-07-26T12:06:49.169Z,10782.72
2022-07-26T12:07:50.377Z,11796.48
2022-07-26T12:08:55.733Z,12257.28
2022-07-26T12:09:49.776Z,12994.56
2022-07-26T12:10:49.943Z,13916.16
2022-07-26T12:11:51.110Z,19722.24
2022-07-26T12:12:50.468Z,25620.48
2022-07-26T12:13:55.902Z,66355.20
2022-07-26T12:14:51.538Z,47185.92
2022-07-26T12:15:53.088Z,17510.40
2022-07-26T12:16:51.985Z,15943.68
2022-07-26T12:17:52.644Z,15022.08
2022-07-26T12:18:53.019Z,14284.80
2022-07-26T12:19:53.569Z,13639.68
2022-07-26T12:20:57.354Z,13178.88
2022-07-26T12:21:54.746Z,12994.56
2022-07-26T12:22:55.258Z,13547.52
2022-07-26T12:23:55.600Z,13824.00
2022-07-26T12:24:12.160Z,14192.64
2022-07-26T12:25:18.394Z,18063.36
2022-07-26T12:26:12.424Z,57507.84
2022-07-26T12:27:13.594Z,67461.12
2022-07-26T12:28:14.109Z,67829.76
2022-07-26T12:29:13.790Z,63406.08
2022-07-26T12:30:14.834Z,67829.76
2022-07-26T12:31:14.160Z,69304.32
2022-07-26T12:32:14.747Z,69304.32
2022-07-26T12:33:14.762Z,63037.44
2022-07-26T12:34:16.230Z,64880.64
2022-07-26T12:35:15.738Z,68198.40
2022-07-26T12:36:16.322Z,65249.28
2022-07-26T12:37:16.631Z,65617.92
2022-07-26T12:38:17.232Z,18524.16
2022-07-26T12:39:17.475Z,16957.44
2022-07-26T12:40:19.040Z,16773.12
2022-07-26T12:41:18.232Z,18247.68
2022-07-26T12:42:21.400Z,22118.40
2022-07-26T12:43:19.302Z,52346.88
2022-07-26T12:44:19.602Z,53084.16
2022-07-26T12:45:21.162Z,34283.52
2022-07-26T12:46:22.079Z,73359.36
2022-07-26T12:47:21.320Z,54190.08
2022-07-26T12:48:21.540Z,64143.36
2022-07-26T12:49:22.845Z,22118.40
2022-07-26T12:50:22.771Z,36864.00
2022-07-26T12:50:31.045Z,27095.04
2022-07-26T12:51:31.467Z,71147.52
2022-07-26T12:52:31.700Z,21288.96
2022-07-26T12:53:33.309Z,19998.72
2022-07-26T12:54:32.969Z,17971.20
2022-07-26T12:55:33.699Z,16773.12
2022-07-26T12:56:34.133Z,14745.60
2022-07-26T12:57:36.858Z,14100.48
2022-07-26T12:58:34.833Z,13271.04
2022-07-26T12:59:36.233Z,13824.00
2022-07-26T13:00:36.108Z,13086.72
2022-07-26T13:01:37.117Z,12718.08
2022-07-26T13:02:37.456Z,11888.64
2022-07-26T13:03:38.849Z,11520.00
2022-07-26T13:04:38.276Z,11381.76
2022-07-26T13:05:38.428Z,11381.76
2022-07-26T13:06:39.944Z,11473.92
2022-07-26T13:07:39.469Z,11473.92
2022-07-26T13:08:40.650Z,11658.24
2022-07-26T13:09:41.068Z,11566.08
2022-07-26T13:10:41.765Z,11151.36
2022-07-26T13:11:42.487Z,11059.20
2022-07-26T13:12:42.757Z,11013.12
2022-07-26T13:13:43.037Z,11059.20
2022-07-26T13:14:43.272Z,11289.60
2022-07-26T13:14:52.413Z,11289.60
2022-07-26T13:15:52.669Z,11289.60
2022-07-26T13:16:52.841Z,11335.68
2022-07-26T13:17:53.000Z,11704.32
2022-07-26T13:18:53.265Z,12165.12
2022-07-26T13:19:54.585Z,12533.76
2022-07-26T13:20:54.742Z,12902.40
2022-07-26T13:21:54.603Z,13363.20
2022-07-26T13:22:55.210Z,14284.80
2022-07-26T13:23:55.324Z,15482.88
2022-07-26T13:24:55.900Z,16496.64
2022-07-26T13:25:56.278Z,17602.56
2022-07-26T13:26:56.623Z,18616.32
2022-07-26T13:27:56.838Z,19722.24
2022-07-26T13:28:58.152Z,21473.28
2022-07-26T13:29:58.910Z,42024.96
2022-07-26T13:30:58.414Z,25620.48
2022-07-26T13:31:58.645Z,22302.72
2022-07-26T13:32:59.919Z,23592.96
2022-07-26T13:33:59.345Z,23961.60
2022-07-26T13:35:00.392Z,30412.80
2022-07-26T13:36:00.652Z,65617.92
2022-07-26T13:37:00.925Z,62668.80
2022-07-26T13:38:00.139Z,61562.88
2022-07-26T13:39:00.547Z,59719.68
2022-07-26T13:40:01.021Z,59719.68
2022-07-26T13:40:09.563Z,59719.68
2022-07-26T13:41:09.547Z,31334.40
2022-07-26T13:42:09.672Z,28200.96
2022-07-26T13:43:11.382Z,26542.08
2022-07-26T13:44:11.986Z,58982.40
2022-07-26T13:45:11.420Z,66355.20
2022-07-26T13:46:12.142Z,58982.40
2022-07-26T13:47:13.033Z,24514.56
2022-07-26T13:48:13.435Z,18800.64
2022-07-26T13:49:14.048Z,20090.88
2022-07-26T13:50:14.313Z,19906.56
2022-07-26T13:51:15.991Z,35205.12
2022-07-26T13:52:17.028Z,30228.48
2022-07-26T13:53:16.087Z,51240.96
2022-07-26T13:54:17.928Z,39628.80
2022-07-26T13:55:16.829Z,16865.28
2022-07-26T13:56:18.641Z,15206.40
2022-07-26T13:57:19.126Z,12902.40
2022-07-26T13:58:19.337Z,10506.24
2022-07-26T13:59:19.411Z,8663.04
2022-07-26T14:00:18.733Z,7603.20
2022-07-26T14:01:19.487Z,6958.08
2022-07-26T14:02:19.561Z,6865.92
2022-07-26T14:03:19.722Z,7326.72
2022-07-26T14:04:20.229Z,8110.08
2022-07-26T14:05:20.682Z,9815.04
2022-07-26T14:06:21.325Z,10690.56
2022-07-26T14:06:51.444Z,10920.96
2022-07-26T14:07:51.655Z,11013.12
2022-07-26T14:08:51.836Z,11566.08
2022-07-26T14:09:52.526Z,11888.64
2022-07-26T14:10:52.801Z,19445.76
2022-07-26T14:11:54.549Z,10137.60
2022-07-26T14:12:54.989Z,10229.76
2022-07-26T14:13:54.463Z,10275.84
2022-07-26T14:14:54.785Z,10460.16
2022-07-26T14:15:54.869Z,10506.24
2022-07-26T14:16:55.226Z,10552.32
2022-07-26T14:17:58.768Z,10460.16
2022-07-26T14:18:56.365Z,10506.24
2022-07-26T14:19:57.560Z,10690.56
2022-07-26T14:20:56.795Z,10690.56
2022-07-26T14:22:00.126Z,10414.08
2022-07-26T14:22:07.553Z,10321.92
2022-07-26T14:23:07.944Z,10045.44
2022-07-26T14:24:08.727Z,9768.96
2022-07-26T14:25:08.389Z,9492.48
2022-07-26T14:26:09.016Z,9354.24
2022-07-26T14:27:10.274Z,9262.08
2022-07-26T14:28:09.401Z,9123.84
2022-07-26T14:29:09.892Z,9077.76
2022-07-26T14:30:11.168Z,8985.60
2022-07-26T14:31:10.737Z,8663.04
2022-07-26T14:32:11.294Z,8663.04
2022-07-26T14:33:11.465Z,8985.60
2022-07-26T14:34:15.318Z,9492.48
2022-07-26T14:35:13.061Z,9815.04
2022-07-26T14:36:13.265Z,9953.28
2022-07-26T14:37:43.204Z,9768.96
2022-07-26T14:38:25.509Z,9308.16
2022-07-26T14:39:14.874Z,8616.96
2022-07-26T14:40:16.254Z,7787.52
2022-07-26T14:41:15.538Z,7234.56
2022-07-26T14:42:16.975Z,6773.76
2022-07-26T14:43:17.197Z,6359.04
2022-07-26T14:44:17.530Z,5875.20
2022-07-26T14:44:26.214Z,5760.00
2022-07-26T14:45:26.364Z,5207.04
2022-07-26T14:46:35.055Z,4654.08
2022-07-26T14:47:27.649Z,4262.40
2022-07-26T14:48:52.849Z,4008.96
2022-07-26T14:49:28.247Z,3893.76
2022-07-26T14:50:42.425Z,3870.72
2022-07-26T14:51:29.293Z,3916.80
2022-07-26T14:52:30.000Z,4032.00
2022-07-26T14:53:30.190Z,4078.08
2022-07-26T14:54:31.670Z,4032.00
2022-07-26T14:55:32.030Z,3893.76
2022-07-26T14:56:32.294Z,3755.52
2022-07-26T14:57:31.650Z,3663.36
2022-07-26T14:58:32.802Z,3617.28
2022-07-26T14:59:33.028Z,3594.24
2022-07-26T15:00:33.848Z,3686.40
2022-07-26T15:01:33.435Z,3801.60
2022-07-26T15:02:34.098Z,3755.52
2022-07-26T15:03:34.196Z,3548.16
2022-07-26T15:04:35.656Z,3225.60
2022-07-26T15:05:36.577Z,2995.20
2022-07-26T15:06:35.957Z,2903.04
2022-07-26T15:07:36.041Z,3018.24
2022-07-26T15:07:45.136Z,3064.32
2022-07-26T15:08:45.504Z,3663.36
2022-07-26T15:09:45.724Z,4677.12
2022-07-26T15:10:46.749Z,5875.20
2022-07-26T15:11:46.711Z,6681.60
2022-07-26T15:12:47.101Z,6819.84
2022-07-26T15:13:47.297Z,6405.12
2022-07-26T15:14:48.732Z,5598.72
2022-07-26T15:15:50.123Z,4746.24
2022-07-26T15:16:49.002Z,4078.08
2022-07-26T15:17:50.019Z,3732.48
2022-07-26T15:18:50.262Z,3617.28
2022-07-26T15:19:49.844Z,3594.24
2022-07-26T15:20:50.346Z,3548.16
2022-07-26T15:21:51.540Z,3409.92
2022-07-26T15:22:51.335Z,3248.64
2022-07-26T15:23:53.325Z,3041.28
2022-07-26T15:24:52.579Z,2880.00
2022-07-26T15:25:54.549Z,2741.76
2022-07-26T15:26:54.283Z,2649.60
2022-07-26T15:27:55.480Z,2557.44
2022-07-26T15:28:55.935Z,2419.20
2022-07-26T15:30:02.808Z,2269.44
2022-07-26T15:30:11.633Z,2246.40
2022-07-26T15:31:08.310Z,2039.04
2022-07-26T15:32:08.727Z,1843.20
2022-07-26T15:33:09.197Z,1658.88
2022-07-26T15:34:10.069Z,1589.76
2022-07-26T15:35:14.631Z,1728.00
2022-07-26T15:36:09.956Z,2119.68
2022-07-26T15:37:10.174Z,2799.36
2022-07-26T15:38:10.651Z,3709.44
2022-07-26T15:39:18.611Z,4654.08
2022-07-26T15:40:11.500Z,5184.00
2022-07-26T15:41:12.056Z,5137.92
2022-07-26T15:42:15.192Z,4999.68
2022-07-26T15:43:12.930Z,4654.08
2022-07-26T15:44:15.060Z,4400.64
2022-07-26T15:45:14.834Z,4124.16
2022-07-26T15:46:15.910Z,3824.64
2022-07-26T15:47:43.479Z,3617.28
2022-07-26T15:48:22.163Z,3617.28
2022-07-26T15:49:16.997Z,3778.56
2022-07-26T15:50:17.230Z,3939.84
2022-07-26T15:51:19.186Z,4055.04
2022-07-26T15:52:18.284Z,4147.20
2022-07-26T15:53:18.787Z,4193.28
2022-07-26T15:54:20.397Z,4193.28
2022-07-26T15:55:21.062Z,3985.92
2022-07-26T15:56:20.397Z,3686.40
2022-07-26T15:57:21.195Z,3409.92
2022-07-26T15:57:36.838Z,3340.80
2022-07-26T15:58:35.885Z,3087.36
2022-07-26T15:59:36.620Z,2914.56
2022-07-26T16:00:38.013Z,2753.28
2022-07-26T16:01:37.441Z,2695.68
2022-07-26T16:02:38.021Z,2787.84
2022-07-26T16:03:39.302Z,3087.36
2022-07-26T16:04:39.036Z,3502.08
2022-07-26T16:05:39.427Z,4008.96
2022-07-26T16:06:39.657Z,4492.80
2022-07-26T16:07:40.110Z,4930.56
2022-07-26T16:08:58.869Z,5160.96
2022-07-26T16:09:41.087Z,5114.88
2022-07-26T16:10:42.238Z,5114.88
2022-07-26T16:11:42.563Z,5091.84
2022-07-26T16:12:43.912Z,4999.68
2022-07-26T16:13:42.436Z,4815.36
2022-07-26T16:14:42.566Z,4608.00
2022-07-26T16:15:43.015Z,4331.52
2022-07-26T16:16:47.681Z,4055.04
2022-07-26T16:17:44.030Z,3755.52
2022-07-26T16:18:44.355Z,3409.92
2022-07-26T16:19:46.283Z,3294.72
2022-07-26T16:20:45.238Z,3225.60
2022-07-26T16:20:55.517Z,3202.56
2022-07-26T16:21:56.157Z,3156.48
2022-07-26T16:22:57.075Z,3064.32
2022-07-26T16:23:59.836Z,2845.44
2022-07-26T16:24:57.878Z,2499.84
2022-07-26T16:25:58.269Z,2142.72
2022-07-26T16:26:59.925Z,1843.20
2022-07-26T16:27:59.086Z,1555.20
2022-07-26T16:29:00.557Z,1347.84
2022-07-26T16:30:00.376Z,1244.16
2022-07-26T16:31:01.119Z,1272.96
2022-07-26T16:32:02.768Z,1307.52
2022-07-26T16:33:02.529Z,1296.00
2022-07-26T16:34:02.683Z,1342.08
2022-07-26T16:35:03.802Z,1422.72
2022-07-26T16:36:06.386Z,1428.48
2022-07-26T16:37:04.105Z,1416.96
2022-07-26T16:38:04.145Z,1393.92
2022-07-26T16:39:04.983Z,1382.40
2022-07-26T16:40:06.921Z,1393.92
2022-07-26T16:41:08.935Z,1359.36
2022-07-26T16:42:07.244Z,1330.56
2022-07-26T16:42:16.600Z,1324.80
2022-07-26T16:43:16.732Z,1370.88
2022-07-26T16:44:15.910Z,1486.08
2022-07-26T16:45:17.470Z,1612.80
2022-07-26T16:46:16.809Z,1774.08
2022-07-26T16:47:18.136Z,1843.20
2022-07-26T16:48:18.035Z,1923.84
2022-07-26T16:49:19.196Z,2004.48
2022-07-26T16:50:27.061Z,2027.52
2022-07-26T16:51:18.888Z,1912.32
2022-07-26T16:52:19.064Z,1774.08
2022-07-26T16:53:19.308Z,1658.88
2022-07-26T16:54:19.758Z,1543.68
2022-07-26T16:55:20.293Z,1434.24
2022-07-26T16:56:20.457Z,1376.64
2022-07-26T16:57:21.644Z,1365.12
2022-07-26T16:58:20.870Z,1365.12
2022-07-26T16:59:22.226Z,1353.60
2022-07-26T17:00:21.449Z,1370.88
2022-07-26T17:01:21.821Z,1445.76
2022-07-26T17:02:22.012Z,1555.20
2022-07-26T17:03:22.987Z,1601.28
2022-07-26T17:04:22.754Z,1728.00
2022-07-26T17:04:49.652Z,1808.64
2022-07-26T17:05:46.448Z,1958.40
2022-07-26T17:07:07.834Z,2004.48
2022-07-26T17:07:47.296Z,1935.36
2022-07-26T17:08:48.909Z,1831.68
2022-07-26T17:09:48.470Z,1716.48
2022-07-26T17:10:48.960Z,1601.28
2022-07-26T17:11:49.225Z,1520.64
2022-07-26T17:12:50.866Z,1445.76
2022-07-26T17:13:50.236Z,1399.68
2022-07-26T17:14:50.653Z,1399.68
2022-07-26T17:15:50.956Z,1445.76
2022-07-26T17:16:52.388Z,1543.68
2022-07-26T17:17:51.651Z,1635.84
2022-07-26T17:18:52.899Z,1739.52
2022-07-26T17:19:52.761Z,1843.20
2022-07-26T17:20:53.882Z,1912.32
2022-07-26T17:21:52.963Z,1981.44
2022-07-26T17:22:54.234Z,2085.12
2022-07-26T17:23:54.709Z,2108.16
2022-07-26T17:24:55.844Z,2027.52
2022-07-26T17:25:04.588Z,2004.48
2022-07-26T17:26:04.931Z,1958.40
2022-07-26T17:27:05.598Z,1969.92
2022-07-26T17:28:06.701Z,1981.44
2022-07-26T17:29:07.474Z,1935.36
2022-07-26T17:30:07.516Z,1831.68
2022-07-26T17:31:07.463Z,1739.52
2022-07-26T17:32:08.723Z,1728.00
2022-07-26T17:33:09.196Z,1762.56
2022-07-26T17:34:08.370Z,1762.56
2022-07-26T17:35:09.672Z,1693.44
2022-07-26T17:36:09.406Z,1635.84
2022-07-26T17:37:11.075Z,1612.80
2022-07-26T17:38:09.714Z,1578.24
2022-07-26T17:39:10.583Z,1509.12
2022-07-26T17:40:10.870Z,1434.24
2022-07-26T17:41:17.408Z,1411.20
2022-07-26T17:42:11.951Z,1382.40
2022-07-26T17:43:12.271Z,1324.80
2022-07-26T17:44:13.367Z,1232.64
2022-07-26T17:45:12.530Z,1140.48
2022-07-26T17:46:12.755Z,1117.44
2022-07-26T17:46:27.810Z,1123.20
2022-07-26T17:47:30.569Z,1180.80
2022-07-26T17:48:29.187Z,1198.08
2022-07-26T17:49:29.185Z,1232.64
2022-07-26T17:50:38.369Z,1255.68
2022-07-26T17:51:30.425Z,1221.12
2022-07-26T17:52:31.903Z,1198.08
2022-07-26T17:53:34.376Z,1175.04
2022-07-26T17:54:31.489Z,1192.32
2022-07-26T17:55:32.388Z,1238.40
2022-07-26T17:56:33.020Z,1313.28
2022-07-26T17:57:34.377Z,1376.64
2022-07-26T17:58:34.105Z,1405.44
2022-07-26T17:59:35.166Z,1399.68
2022-07-26T18:00:34.432Z,1370.88
2022-07-26T18:01:34.681Z,1284.48
2022-07-26T18:02:34.945Z,1221.12
2022-07-26T18:03:36.532Z,1215.36
2022-07-26T18:04:35.574Z,1226.88
2022-07-26T18:05:40.858Z,1238.40
2022-07-26T18:06:39.623Z,1272.96
2022-07-26T18:07:44.186Z,1307.52
2022-07-26T18:08:37.987Z,1307.52
2022-07-26T18:09:38.602Z,1278.72
2022-07-26T18:10:40.075Z,1255.68
2022-07-26T18:11:40.702Z,1226.88
2022-07-26T18:12:39.949Z,1192.32
2022-07-26T18:13:41.858Z,1186.56
2022-07-26T18:13:51.171Z,1192.32
2022-07-26T18:14:51.891Z,1215.36
2022-07-26T18:15:53.624Z,1226.88
2022-07-26T18:16:53.985Z,1232.64
2022-07-26T18:17:53.597Z,1215.36
2022-07-26T18:18:54.724Z,1169.28
2022-07-26T18:19:53.974Z,1117.44
2022-07-26T18:20:54.041Z,1031.04
2022-07-26T18:21:54.299Z,961.92
2022-07-26T18:22:54.827Z,933.12
2022-07-26T18:24:15.744Z,887.04
2022-07-26T18:24:55.947Z,852.48
2022-07-26T18:25:56.378Z,708.48
2022-07-26T18:26:57.306Z,682.56
2022-07-26T18:27:57.543Z,691.20
2022-07-26T18:28:58.611Z,691.20
2022-07-26T18:29:58.279Z,688.32
2022-07-26T18:31:05.480Z,685.44
2022-07-26T18:32:00.074Z,673.92
2022-07-26T18:33:00.387Z,656.64
2022-07-26T18:34:06.373Z,648.00
2022-07-26T18:35:01.641Z,636.48
2022-07-26T18:35:10.351Z,633.60
2022-07-26T18:36:10.401Z,616.32
2022-07-26T18:37:10.790Z,593.28
2022-07-26T18:38:12.560Z,578.88
2022-07-26T18:39:12.973Z,570.24
2022-07-26T18:40:11.967Z,567.36
2022-07-26T18:41:12.266Z,564.48
2022-07-26T18:42:13.156Z,552.96
2022-07-26T18:43:13.945Z,538.56
2022-07-26T18:44:14.415Z,518.40
2022-07-26T18:45:14.761Z,492.48
2022-07-26T18:46:23.624Z,466.56
2022-07-26T18:47:15.676Z,437.76
2022-07-26T18:48:17.125Z,411.84
2022-07-26T18:49:20.146Z,391.68
2022-07-26T18:50:17.369Z,371.52
2022-07-26T18:51:17.601Z,348.48
2022-07-26T18:52:28.345Z,334.08
2022-07-26T18:53:18.495Z,321.12
2022-07-26T18:54:19.334Z,308.16
2022-07-26T18:55:19.397Z,308.16
2022-07-26T18:56:20.854Z,321.12
2022-07-26T18:57:20.772Z,336.96
2022-07-26T18:58:21.736Z,339.84
2022-07-26T18:59:22.170Z,328.32
2022-07-26T19:00:23.653Z,321.12
2022-07-26T19:00:34.776Z,319.68
2022-07-26T19:01:35.456Z,313.92
2022-07-26T19:02:36.220Z,302.40
2022-07-26T19:03:36.852Z,292.32
2022-07-26T19:04:37.718Z,279.36
2022-07-26T19:05:38.214Z,264.96
2022-07-26T19:06:38.268Z,250.56
2022-07-26T19:07:38.578Z,237.60
2022-07-26T19:08:40.047Z,221.76
2022-07-26T19:09:39.856Z,208.80
2022-07-26T19:10:40.691Z,200.16
2022-07-26T19:11:42.623Z,198.72
2022-07-26T19:12:42.371Z,195.84
2022-07-26T19:13:43.944Z,190.08
2022-07-26T19:14:44.788Z,188.64
2022-07-26T19:15:44.223Z,187.20
2022-07-26T19:16:45.002Z,184.32
2022-07-26T19:17:45.458Z,176.40
2022-07-26T19:18:50.039Z,164.88
2022-07-26T19:19:46.198Z,150.48
2022-07-26T19:20:05.934Z,146.88
2022-07-26T19:21:01.503Z,133.92
2022-07-26T19:22:02.284Z,120.24
2022-07-26T19:23:04.004Z,108.72
2022-07-26T19:24:03.794Z,100.80
2022-07-26T19:25:04.064Z,94.32
2022-07-26T19:26:04.974Z,87.48
2022-07-26T19:27:06.512Z,80.28
2022-07-26T19:28:06.206Z,71.28
2022-07-26T19:29:06.376Z,60.12
2022-07-26T19:30:06.751Z,51.84
2022-07-26T19:31:08.761Z,47.52
2022-07-26T19:32:11.273Z,43.20
2022-07-26T19:33:08.989Z,38.16
2022-07-26T19:34:09.972Z,28.80
2022-07-26T19:35:10.015Z,19.44
2022-07-26T19:36:10.682Z,15.21
2022-07-26T19:37:11.420Z,13.41
2022-07-26T19:38:12.758Z,13.14
2022-07-26T19:39:12.340Z,13.05
2022-07-26T19:40:14.395Z,12.51
2022-07-26T19:41:15.900Z,11.61
2022-07-26T19:41:29.267Z,11.30
2022-07-26T19:42:29.825Z,9.54
2022-07-26T19:43:31.464Z,7.78
2022-07-26T19:44:30.667Z,6.75
2022-07-26T19:45:31.368Z,6.16
2022-07-26T19:46:31.494Z,5.76
2022-07-26T19:47:31.522Z,5.18
2022-07-26T19:48:31.760Z,4.55
2022-07-26T19:49:32.254Z,3.78
2022-07-26T19:50:33.140Z,2.97
2022-07-26T19:51:33.421Z,2.25
2022-07-26T19:52:33.941Z,1.66
2022-07-26T19:53:34.163Z,1.30
2022-07-26T19:54:35.661Z,1.08
2022-07-26T19:55:34.794Z,0.99
2022-07-26T19:56:36.195Z,0.90
2022-07-26T19:57:35.189Z,0.86
2022-07-26T19:58:36.224Z,0.86
2022-07-26T19:59:36.156Z,0.86
2022-07-26T20:00:36.617Z,0.68
2022-07-26T20:01:08.963Z,0.68
2022-07-26T20:01:58.335Z,0.54
2022-07-26T20:02:49.386Z,0.41
2022-07-26T20:03:50.006Z,0.31
2022-07-26T20:04:50.725Z,0.31
2022-07-26T20:05:51.126Z,0.27
2022-07-26T20:06:51.756Z,0.22
2022-07-26T20:07:53.120Z,0.18
2022-07-26T20:08:53.621Z,0.18
2022-07-26T20:09:52.696Z,0.14
2022-07-26T20:10:52.885Z,0.14
2022-07-26T20:12:01.322Z,0.14
2022-07-26T20:12:54.479Z,0.14
2022-07-26T20:13:56.430Z,0.09
2022-07-26T20:15:46.655Z,0.05
2022-07-26T20:16:43.854Z,0.05
2022-07-26T20:17:47.112Z,0.05
2022-07-26T20:18:50.068Z,0.05
2022-07-26T20:19:45.404Z,0.05
2022-07-26T20:21:06.451Z,0.05
2022-07-26T20:22:06.718Z,0.05
2022-07-26T20:23:07.031Z,0.05
2022-07-26T20:24:07.913Z,0.05
2022-07-26T20:25:14.085Z,0.05
2022-07-26T20:26:08.993Z,0.05
2022-07-26T20:27:09.889Z,0.05
2022-07-26T20:28:18.168Z,0.00
2022-07-26T20:29:14.565Z,0.00
2022-07-26T20:30:11.589Z,0.00
2022-07-26T20:31:30.017Z,0.00
2022-07-26T20:32:12.789Z,0.00
2022-07-26T20:33:13.082Z,0.00
2022-07-26T20:34:14.663Z,0.00
2022-07-26T20:35:14.696Z,0.00
2022-07-26T20:36:15.579Z,0.00
2022-07-26T20:37:15.582Z,0.00
2022-07-26T20:38:18.297Z,0.00
2022-07-26T20:39:20.393Z,0.00
2022-07-26T20:40:26.478Z,0.00
2022-07-26T20:42:14.888Z,0.00
2022-07-26T20:43:31.893Z,0.00
2022-07-26T20:44:31.794Z,0.00
2022-07-26T20:45:32.112Z,0.00
2022-07-26T20:46:33.758Z,0.00
2022-07-26T20:47:48.996Z,0.00
2022-07-26T20:48:34.328Z,0.00
2022-07-26T20:49:40.078Z,0.00
2022-07-26T20:50:33.237Z,0.00
2022-07-26T20:51:34.189Z,0.00
2022-07-26T20:52:35.485Z,0.00
2022-07-26T20:53:34.430Z,0.00
2022-07-26T20:54:34.786Z,0.00
2022-07-26T20:55:42.653Z,0.00
2022-07-26T20:56:36.272Z,0.00
2022-07-26T20:57:36.731Z,0.00
2022-07-26T20:58:36.862Z,0.00
2022-07-26T20:59:39.592Z,0.00
2022-07-26T21:00:37.914Z,0.00
2022-07-26T21:01:38.871Z,0.00
2022-07-26T21:02:39.740Z,0.00
2022-07-26T21:03:40.232Z,0.00
2022-07-26T21:04:40.487Z,0.00
2022-07-26T21:05:43.925Z,0.00
2022-07-26T21:06:41.377Z,0.00
2022-07-26T21:07:53.924Z,0.00
2022-07-26T21:08:42.346Z,0.00
2022-07-26T21:09:46.776Z,0.00
2022-07-26T21:10:43.761Z,0.00
2022-07-26T21:11:44.325Z,0.00
2022-07-26T21:12:44.872Z,0.00
2022-07-26T21:13:44.903Z,0.00
2022-07-26T21:15:09.196Z,0.00
2022-07-26T21:16:09.803Z,0.00
2022-07-26T21:17:12.204Z,0.00
2022-07-26T21:18:09.903Z,0.00
2022-07-26T21:19:10.480Z,0.00
2022-07-26T21:20:10.495Z,0.00
2022-07-26T21:21:11.479Z,0.00
2022-07-26T21:22:11.940Z,0.00
2022-07-26T21:23:17.816Z,0.00
2022-07-26T21:24:21.765Z,0.00
2022-07-26T21:25:13.378Z,0.00
2022-07-26T21:26:13.499Z,0.00
2022-07-26T21:27:14.027Z,0.00
2022-07-26T21:28:22.481Z,0.00
2022-07-26T21:29:18.715Z,0.00
2022-07-26T21:30:16.056Z,0.00
2022-07-26T21:31:19.653Z,0.00
2022-07-26T21:32:19.463Z,0.00
2022-07-26T21:33:25.130Z,0.00
2022-07-26T21:34:18.030Z,0.00
2022-07-26T21:35:18.764Z,0.00
2022-07-26T21:36:19.980Z,0.00
2022-07-26T21:37:20.044Z,0.00
2022-07-26T21:38:28.397Z,0.00
2022-07-26T21:39:20.956Z,0.00
2022-07-26T21:40:20.958Z,0.00
2022-07-26T21:40:35.643Z,0.00
2022-07-26T21:41:42.988Z,0.00
2022-07-26T21:42:35.635Z,0.00
2022-07-26T21:43:36.175Z,0.00
2022-07-26T21:44:38.689Z,0.00
2022-07-26T21:45:36.831Z,0.00
2022-07-26T21:47:22.734Z,0.00
2022-07-26T21:47:38.000Z,0.00
2022-07-26T21:48:40.740Z,0.00
2022-07-26T21:49:38.587Z,0.00
2022-07-26T21:50:41.207Z,0.00
2022-07-26T21:51:42.190Z,0.00
2022-07-26T21:52:47.851Z,0.00
2022-07-26T21:53:40.476Z,0.00
2022-07-26T21:54:50.282Z,0.00
2022-07-26T21:55:43.915Z,0.00
2022-07-26T21:56:41.847Z,0.00
2022-07-26T21:57:47.557Z,0.00
2022-07-26T21:58:42.282Z,0.00
2022-07-26T21:59:43.323Z,0.00
2022-07-26T22:00:43.421Z,0.00
2022-07-26T22:01:43.957Z,0.00
2022-07-26T22:02:44.584Z,0.00
2022-07-26T22:03:46.146Z,0.00
2022-07-26T22:04:47.845Z,0.00
2022-07-26T22:05:45.586Z,0.00
2022-07-26T22:06:46.300Z,0.00
2022-07-26T22:07:00.359Z,0.00
2022-07-26T22:07:57.762Z,0.00
2022-07-26T22:09:00.124Z,0.00
2022-07-26T22:09:58.813Z,0.00
2022-07-26T22:10:59.015Z,0.00
2022-07-26T22:11:59.631Z,0.00
2022-07-26T22:12:59.830Z,0.00
2022-07-26T22:14:00.492Z,0.00
2022-07-26T22:15:02.631Z,0.00
2022-07-26T22:16:03.059Z,0.00
2022-07-26T22:17:01.617Z,0.00
2022-07-26T22:18:03.239Z,0.00
2022-07-26T22:19:03.012Z,0.00
2022-07-26T22:20:03.555Z,0.00
2022-07-26T22:21:03.949Z,0.00
2022-07-26T22:22:04.808Z,0.00
2022-07-26T22:23:05.517Z,0.00
2022-07-26T22:24:05.693Z,0.00
2022-07-26T22:25:06.076Z,0.00
2022-07-26T22:26:06.378Z,0.00
2022-07-26T22:27:07.154Z,0.00
2022-07-26T22:28:07.650Z,0.00
2022-07-26T22:29:07.741Z,0.00
2022-07-26T22:30:07.877Z,0.00
2022-07-26T22:31:08.695Z,0.00
2022-07-26T22:32:09.674Z,0.00
2022-07-26T22:33:10.395Z,0.00
2022-07-26T22:34:11.050Z,0.00
2022-07-26T22:35:11.341Z,0.00
2022-07-26T22:36:11.929Z,0.00
2022-07-26T22:37:12.837Z,0.00
2022-07-26T22:38:13.172Z,0.00
2022-07-26T22:38:21.836Z,0.00
2022-07-26T22:39:22.809Z,0.00
2022-07-26T22:40:22.839Z,0.00
2022-07-26T22:41:22.944Z,0.00
2022-07-26T22:42:23.421Z,0.00
2022-07-26T22:43:25.200Z,0.00
2022-07-26T22:44:24.706Z,0.00
2022-07-26T22:45:25.292Z,0.00
2022-07-26T22:46:27.767Z,0.00
2022-07-26T22:47:26.331Z,0.00
2022-07-26T22:48:26.381Z,0.00
2022-07-26T22:49:26.553Z,0.00
2022-07-26T22:50:27.288Z,0.00
2022-07-26T22:51:27.745Z,0.00
2022-07-26T22:52:28.234Z,0.00
2022-07-26T22:53:29.154Z,0.00
2022-07-26T22:54:30.074Z,0.00
2022-07-26T22:55:30.458Z,0.00
2022-07-26T22:56:34.647Z,0.00
2022-07-26T22:57:32.196Z,0.00
2022-07-26T22:58:32.779Z,0.00
2022-07-26T22:59:33.526Z,0.00
2022-07-26T23:00:34.988Z,0.00
2022-07-26T23:01:35.031Z,0.00
2022-07-26T23:01:43.557Z,0.00
2022-07-26T23:02:44.188Z,0.00
2022-07-26T23:03:49.755Z,0.00
2022-07-26T23:04:49.109Z,0.00
2022-07-26T23:05:47.690Z,0.00
2022-07-26T23:06:46.671Z,0.00
2022-07-26T23:07:47.846Z,0.00
2022-07-26T23:08:48.233Z,0.00
2022-07-26T23:09:48.944Z,0.00
2022-07-26T23:10:49.197Z,0.00
2022-07-26T23:11:49.952Z,0.00
2022-07-26T23:12:50.337Z,0.00
2022-07-26T23:13:50.914Z,0.00
2022-07-26T23:14:51.384Z,0.00
2022-07-26T23:15:56.760Z,0.00
2022-07-26T23:16:52.370Z,0.00
2022-07-26T23:17:52.738Z,0.00
2022-07-26T23:18:53.150Z,0.00
2022-07-26T23:19:53.370Z,0.00
2022-07-26T23:20:53.998Z,0.00
2022-07-26T23:21:54.120Z,0.00
2022-07-26T23:22:55.341Z,0.00
2022-07-26T23:23:54.909Z,0.00
2022-07-26T23:24:56.187Z,0.00
2022-07-26T23:25:55.272Z,0.00
2022-07-26T23:26:55.247Z,0.00
2022-07-26T23:27:56.143Z,0.00
2022-07-26T23:28:56.647Z,0.00
2022-07-26T23:29:06.450Z,0.00
2022-07-26T23:30:06.940Z,0.00
2022-07-26T23:31:07.910Z,0.00
2022-07-26T23:32:08.287Z,0.00
2022-07-26T23:33:16.248Z,0.00
2022-07-26T23:34:08.573Z,0.00
2022-07-26T23:35:14.315Z,0.00
2022-07-26T23:36:09.720Z,0.00